Terminal Aerodrome Forecast
Issued by NWS Raleigh/Durham, NC

Home | Current Version | Previous Version | Text Only | Print | Product List | Glossary On
Versions: 1 2 3 4 5 6 7 8 9 10 11 12 13 14 15 16 17 18 19 20 21 22 23 24 25 26 27 28
000
FTUS42 KRAH 230628 AAA
TAFGSO
TAF AMD
KGSO 230628Z 2306/2406 08013G23KT 3SM SHRA BKN005 OVC015
      TEMPO 2308/2310 -TSRA BKN006 OVC015CB
     FM231400 22006KT 4SM BR SCT005 BKN020
     FM231900 23004KT P6SM VCSH BKN015
     FM232100 30005KT P6SM VCSH SCT010 BKN030
     FM240200 32008KT 4SM BR OVC015=

USA.gov is the U.S. government's official web portal to all federal, state and local government web resources and services.